createdAt,value
2018-06-13T00:02:11.485Z,6.20
2018-06-13T00:04:40.019Z,6.27
2018-06-13T00:07:08.624Z,6.27
2018-06-13T00:09:37.165Z,5.43
2018-06-13T00:12:05.884Z,5.53
2018-06-13T00:14:34.538Z,4.93
2018-06-13T00:17:03.225Z,5.00
2018-06-13T00:19:31.841Z,5.93
2018-06-13T00:22:00.439Z,5.60
2018-06-13T00:24:28.990Z,5.87
2018-06-13T00:26:57.512Z,5.73
2018-06-13T00:29:26.511Z,5.43
2018-06-13T00:31:55.052Z,5.63
2018-06-13T00:34:23.611Z,5.67
2018-06-13T00:36:52.311Z,4.83
2018-06-13T00:39:20.880Z,5.80
2018-06-13T00:41:49.476Z,5.40
2018-06-13T00:44:18.034Z,5.50
2018-06-13T00:46:46.576Z,5.20
2018-06-13T00:49:15.175Z,4.70
2018-06-13T00:51:43.704Z,4.67
2018-06-13T00:54:12.232Z,4.30
2018-06-13T00:56:40.810Z,4.97
2018-06-13T00:59:09.341Z,4.50
2018-06-13T01:01:37.765Z,4.53
2018-06-13T01:04:06.242Z,4.77
2018-06-13T01:06:34.723Z,4.63
2018-06-13T01:09:03.300Z,4.33
2018-06-13T01:11:31.892Z,4.40
2018-06-13T01:14:00.415Z,4.70
2018-06-13T01:16:28.964Z,4.37
2018-06-13T01:18:57.520Z,5.00
2018-06-13T01:21:26.136Z,5.20
2018-06-13T01:23:54.719Z,4.70
2018-06-13T01:26:23.328Z,4.80
2018-06-13T01:28:51.979Z,4.57
2018-06-13T01:31:20.454Z,4.77
2018-06-13T01:33:48.947Z,4.30
2018-06-13T01:36:17.473Z,4.40
2018-06-13T01:38:45.997Z,4.43
2018-06-13T01:41:14.544Z,3.93
2018-06-13T01:43:43.174Z,4.10
2018-06-13T01:46:11.747Z,4.50
2018-06-13T01:48:40.376Z,3.87
2018-06-13T01:51:08.972Z,4.10
2018-06-13T01:53:37.646Z,3.87
2018-06-13T01:56:06.247Z,4.00
2018-06-13T01:58:34.840Z,3.77
2018-06-13T02:01:03.432Z,4.17
2018-06-13T02:03:32.100Z,4.33
2018-06-13T02:06:00.658Z,4.33
2018-06-13T02:08:29.182Z,3.93
2018-06-13T02:10:57.831Z,3.90
2018-06-13T02:13:26.428Z,4.17
2018-06-13T02:15:54.972Z,4.30
2018-06-13T02:18:23.542Z,3.63
2018-06-13T02:20:52.131Z,4.03
2018-06-13T02:23:20.818Z,3.83
2018-06-13T02:25:49.442Z,4.23
2018-06-13T02:28:17.961Z,4.00
2018-06-13T02:30:46.596Z,3.93
2018-06-13T02:33:15.217Z,4.10
2018-06-13T02:35:43.967Z,4.20
2018-06-13T02:38:12.548Z,3.70
2018-06-13T02:40:41.239Z,4.37
2018-06-13T02:43:09.949Z,4.13
2018-06-13T02:45:38.613Z,4.50
2018-06-13T02:48:07.217Z,4.73
2018-06-13T02:50:35.875Z,4.47
2018-06-13T02:53:04.523Z,4.30
2018-06-13T02:55:33.230Z,4.87
2018-06-13T02:58:01.941Z,4.67
2018-06-13T03:00:30.640Z,5.30
2018-06-13T03:02:59.335Z,5.50
2018-06-13T03:05:28.025Z,5.07
2018-06-13T03:07:56.693Z,5.23
2018-06-13T03:10:25.507Z,4.83
2018-06-13T03:12:54.210Z,5.30
2018-06-13T03:15:22.949Z,5.47
2018-06-13T03:17:51.576Z,5.57
2018-06-13T03:20:20.223Z,7.40
2018-06-13T03:22:48.966Z,6.03
2018-06-13T03:25:17.682Z,5.60
2018-06-13T03:27:47.101Z,6.20
2018-06-13T03:30:15.749Z,7.00
2018-06-13T03:32:45.074Z,6.63
2018-06-13T03:35:14.230Z,6.37
2018-06-13T03:37:42.950Z,5.00
2018-06-13T03:40:11.722Z,4.57
2018-06-13T03:42:40.509Z,4.70
2018-06-13T03:45:09.519Z,4.83
2018-06-13T03:47:38.386Z,5.30
2018-06-13T03:50:07.102Z,5.03
2018-06-13T03:52:35.775Z,5.57
2018-06-13T03:55:04.630Z,6.20
2018-06-13T03:57:33.355Z,5.80
2018-06-13T04:00:02.022Z,8.97
2018-06-13T04:02:30.697Z,6.80
2018-06-13T04:04:59.480Z,5.70
2018-06-13T04:07:28.176Z,6.53
2018-06-13T04:09:56.916Z,6.33
2018-06-13T04:12:25.737Z,5.40
2018-06-13T04:14:54.477Z,5.70
2018-06-13T04:17:23.110Z,6.70
2018-06-13T04:19:51.897Z,4.87
2018-06-13T04:22:20.616Z,5.83
2018-06-13T04:24:49.457Z,4.03
2018-06-13T04:27:18.039Z,4.80
2018-06-13T04:29:46.616Z,5.30
2018-06-13T04:32:15.315Z,4.60
2018-06-13T04:34:44.079Z,6.80
2018-06-13T04:37:12.901Z,6.00
2018-06-13T04:39:41.520Z,6.53
2018-06-13T04:42:10.063Z,5.30
2018-06-13T04:44:38.708Z,6.00
2018-06-13T04:47:07.349Z,6.47
2018-06-13T04:49:36.043Z,5.20
2018-06-13T04:52:04.697Z,5.60
2018-06-13T04:54:33.428Z,7.40
2018-06-13T04:57:02.318Z,6.13
2018-06-13T04:59:31.320Z,6.00
2018-06-13T05:02:00.390Z,7.33
2018-06-13T05:04:29.117Z,6.47
2018-06-13T05:06:57.702Z,6.43
2018-06-13T05:09:26.403Z,9.83
2018-06-13T05:11:55.195Z,7.27
2018-06-13T05:14:23.984Z,7.87
2018-06-13T05:16:52.797Z,6.37
2018-06-13T05:19:21.627Z,6.53
2018-06-13T05:21:50.303Z,6.20
2018-06-13T05:24:18.994Z,7.37
2018-06-13T05:26:47.877Z,7.03
2018-06-13T05:29:16.432Z,6.57
2018-06-13T05:31:45.102Z,6.00
2018-06-13T05:34:13.808Z,5.77
2018-06-13T05:36:42.619Z,6.13
2018-06-13T05:39:11.442Z,6.60
2018-06-13T05:41:40.347Z,6.27
2018-06-13T05:44:09.055Z,5.80
2018-06-13T05:46:37.728Z,6.37
2018-06-13T05:49:06.401Z,6.53
2018-06-13T05:51:35.011Z,5.67
2018-06-13T05:54:03.780Z,5.20
2018-06-13T05:56:32.316Z,5.73
2018-06-13T05:59:00.892Z,5.60
2018-06-13T06:01:29.577Z,5.90
2018-06-13T06:03:58.172Z,5.53
2018-06-13T06:06:26.901Z,5.87
2018-06-13T06:08:55.508Z,6.40
2018-06-13T06:11:24.135Z,6.97
2018-06-13T06:13:52.918Z,6.63
2018-06-13T06:16:21.584Z,7.87
2018-06-13T06:18:54.120Z,8.17
2018-06-13T06:21:22.935Z,8.40
2018-06-13T06:23:51.475Z,6.43
2018-06-13T06:26:20.411Z,5.50
2018-06-13T06:28:49.185Z,6.13
2018-06-13T06:31:18.283Z,5.70
2018-06-13T06:33:47.876Z,4.47
2018-06-13T06:36:16.591Z,4.70
2018-06-13T06:38:46.252Z,4.37
2018-06-13T06:41:15.205Z,5.00
2018-06-13T06:43:44.229Z,4.40
2018-06-13T06:46:13.394Z,4.00
2018-06-13T06:48:42.349Z,3.87
2018-06-13T06:51:11.304Z,3.63
2018-06-13T06:53:40.031Z,3.70
2018-06-13T06:56:08.685Z,2.90
2018-06-13T06:58:37.352Z,2.90
2018-06-13T07:01:06.168Z,4.80
2018-06-13T07:03:35.032Z,4.07
2018-06-13T07:06:03.809Z,4.77
2018-06-13T07:08:32.835Z,4.23
2018-06-13T07:11:02.132Z,5.80
2018-06-13T07:13:33.769Z,5.37
2018-06-13T07:16:10.152Z,5.33
2018-06-13T07:18:39.603Z,6.27
2018-06-13T07:21:09.677Z,6.30
2018-06-13T07:23:38.704Z,7.00
2018-06-13T07:26:08.216Z,6.87
2018-06-13T07:28:37.607Z,8.03
2018-06-13T07:31:06.712Z,6.90
2018-06-13T07:33:35.435Z,7.70
2018-06-13T07:36:04.264Z,8.77
2018-06-13T07:38:33.126Z,8.70
2018-06-13T07:41:01.986Z,9.67
2018-06-13T07:43:31.420Z,9.03
2018-06-13T07:46:00.279Z,8.67
2018-06-13T07:48:29.108Z,8.57
2018-06-13T07:50:57.974Z,9.23
2018-06-13T07:53:26.734Z,9.97
2018-06-13T07:55:55.347Z,7.93
2018-06-13T07:58:24.240Z,7.53
2018-06-13T08:00:53.226Z,6.63
2018-06-13T08:03:22.069Z,5.50
2018-06-13T08:05:50.875Z,4.77
2018-06-13T08:08:19.752Z,4.30
2018-06-13T08:10:48.642Z,4.47
2018-06-13T08:13:17.743Z,4.60
2018-06-13T08:15:46.674Z,5.07
2018-06-13T08:18:15.616Z,6.10
2018-06-13T08:20:44.242Z,4.50
2018-06-13T08:23:12.954Z,4.80
2018-06-13T08:25:41.522Z,4.70
2018-06-13T08:28:10.180Z,4.73
2018-06-13T08:30:39.011Z,4.10
2018-06-13T08:33:07.872Z,4.40
2018-06-13T08:35:36.610Z,3.80
2018-06-13T08:38:05.346Z,3.87
2018-06-13T08:40:34.162Z,4.40
2018-06-13T08:43:02.876Z,3.13
2018-06-13T08:45:31.583Z,3.43
2018-06-13T08:48:00.422Z,3.23
2018-06-13T08:50:29.220Z,4.03
2018-06-13T08:52:57.953Z,3.30
2018-06-13T08:55:26.637Z,3.83
2018-06-13T08:57:55.636Z,3.20
2018-06-13T09:00:24.413Z,3.57
2018-06-13T09:02:53.194Z,3.13
2018-06-13T09:05:21.816Z,4.87
2018-06-13T09:07:50.574Z,3.80
2018-06-13T09:10:19.243Z,3.53
2018-06-13T09:12:47.912Z,3.27
2018-06-13T09:15:16.621Z,3.07
2018-06-13T09:17:45.215Z,3.90
2018-06-13T09:20:13.861Z,4.00
2018-06-13T09:22:42.447Z,3.90
2018-06-13T09:25:11.120Z,3.37
2018-06-13T09:27:39.770Z,3.43
2018-06-13T09:30:08.435Z,3.93
2018-06-13T09:32:37.054Z,2.90
2018-06-13T09:35:05.729Z,3.80
2018-06-13T09:37:34.387Z,2.90
2018-06-13T09:40:03.088Z,2.47
2018-06-13T09:42:31.815Z,2.77
2018-06-13T09:45:00.400Z,3.10
2018-06-13T09:47:29.087Z,3.00
2018-06-13T09:49:57.765Z,3.20
2018-06-13T09:52:26.373Z,2.57
2018-06-13T09:54:55.025Z,2.07
2018-06-13T09:57:23.668Z,2.53
2018-06-13T09:59:57.412Z,2.07
2018-06-13T10:02:31.218Z,2.60
2018-06-13T10:04:59.787Z,2.87
2018-06-13T10:07:28.590Z,3.50
2018-06-13T10:09:57.275Z,3.33
2018-06-13T10:12:26.204Z,2.93
2018-06-13T10:14:55.319Z,2.80
2018-06-13T10:17:23.965Z,3.20
2018-06-13T10:19:52.705Z,3.67
2018-06-13T10:22:21.296Z,4.13
2018-06-13T10:24:50.086Z,3.37
2018-06-13T10:27:23.884Z,3.87
2018-06-13T10:29:52.540Z,2.53
2018-06-13T10:32:21.160Z,3.50
2018-06-13T10:34:49.819Z,3.50
2018-06-13T10:37:18.493Z,4.57
2018-06-13T10:39:47.180Z,3.77
2018-06-13T10:42:15.851Z,2.87
2018-06-13T10:44:44.841Z,3.13
2018-06-13T10:47:13.692Z,3.40
2018-06-13T10:49:42.608Z,2.83
2018-06-13T10:52:11.463Z,3.47
2018-06-13T10:54:40.144Z,3.50
2018-06-13T10:57:09.082Z,3.37
2018-06-13T10:59:37.944Z,3.80
2018-06-13T11:02:07.228Z,4.00
2018-06-13T11:04:36.062Z,4.13
2018-06-13T11:07:04.817Z,4.03
2018-06-13T11:09:33.569Z,3.80
2018-06-13T11:12:02.336Z,3.70
2018-06-13T11:14:31.090Z,3.40
2018-06-13T11:16:59.808Z,2.93
2018-06-13T11:19:28.688Z,3.70
2018-06-13T11:21:57.444Z,3.10
2018-06-13T11:24:26.366Z,2.63
2018-06-13T11:26:55.154Z,2.37
2018-06-13T11:29:23.818Z,2.00
2018-06-13T11:31:53.883Z,3.20
2018-06-13T11:34:23.138Z,2.50
2018-06-13T11:36:52.234Z,2.43
2018-06-13T11:39:21.030Z,2.03
2018-06-13T11:41:50.192Z,1.90
2018-06-13T11:44:18.923Z,1.80
2018-06-13T11:46:48.228Z,2.47
2018-06-13T11:49:16.854Z,2.03
2018-06-13T11:51:45.571Z,2.10
2018-06-13T11:54:14.357Z,2.63
2018-06-13T11:56:43.937Z,1.60
2018-06-13T11:59:13.064Z,3.43
2018-06-13T12:01:50.057Z,2.23
2018-06-13T12:04:19.001Z,2.27
2018-06-13T12:06:52.364Z,2.43
2018-06-13T12:09:29.381Z,1.90
2018-06-13T12:12:04.695Z,2.40
2018-06-13T12:14:33.720Z,2.60
2018-06-13T12:17:02.629Z,2.37
2018-06-13T12:19:31.394Z,2.30
2018-06-13T12:22:02.268Z,2.40
2018-06-13T12:24:31.156Z,2.13
2018-06-13T12:27:05.331Z,2.30
2018-06-13T12:29:34.060Z,2.30
2018-06-13T12:32:10.887Z,2.30
2018-06-13T12:34:42.283Z,2.63
2018-06-13T12:37:11.648Z,2.80
2018-06-13T12:39:40.223Z,2.27
2018-06-13T12:42:08.928Z,3.10
2018-06-13T12:44:44.612Z,3.23
2018-06-13T12:47:22.255Z,3.03
2018-06-13T12:49:50.958Z,2.80
2018-06-13T12:52:23.465Z,2.70
2018-06-13T12:54:54.110Z,2.60
2018-06-13T12:57:33.538Z,3.20
2018-06-13T13:00:14.743Z,2.60
2018-06-13T13:02:46.541Z,2.93
2018-06-13T13:05:20.439Z,3.00
2018-06-13T13:07:49.660Z,3.87
2018-06-13T13:10:27.826Z,3.90
2018-06-13T13:13:05.383Z,3.70
2018-06-13T13:15:35.333Z,3.93
2018-06-13T13:18:05.999Z,4.43
2018-06-13T13:20:45.577Z,4.37
2018-06-13T13:23:18.845Z,3.70
2018-06-13T13:25:51.856Z,4.70
2018-06-13T13:28:21.449Z,3.83
2018-06-13T13:30:50.337Z,4.30
2018-06-13T13:33:19.078Z,5.80
2018-06-13T13:35:47.827Z,4.07
2018-06-13T13:38:16.594Z,3.73
2018-06-13T13:40:46.531Z,3.60
2018-06-13T13:43:15.379Z,3.97
2018-06-13T13:45:44.272Z,4.17
2018-06-13T13:48:12.952Z,3.23
2018-06-13T13:50:41.782Z,5.37
2018-06-13T13:53:10.456Z,3.53
2018-06-13T13:55:39.111Z,3.30
2018-06-13T13:58:08.268Z,3.43
2018-06-13T14:00:37.133Z,3.53
2018-06-13T14:03:05.729Z,2.80
2018-06-13T14:05:35.544Z,2.73
2018-06-13T14:08:05.123Z,3.37
2018-06-13T14:10:34.279Z,3.23
2018-06-13T14:13:03.714Z,4.07
2018-06-13T14:15:32.558Z,3.83
2018-06-13T14:18:01.615Z,3.40
2018-06-13T14:20:31.476Z,3.17
2018-06-13T14:23:00.517Z,3.53
2018-06-13T14:25:29.328Z,3.70
2018-06-13T14:27:59.231Z,4.00
2018-06-13T14:30:28.039Z,2.80
2018-06-13T14:32:57.353Z,3.63
2018-06-13T14:35:26.546Z,2.90
2018-06-13T14:37:55.871Z,2.83
2018-06-13T14:40:25.936Z,3.70
2018-06-13T14:42:55.843Z,3.17
2018-06-13T14:45:24.963Z,3.27
2018-06-13T14:47:53.976Z,4.00
2018-06-13T14:50:23.685Z,3.30
2018-06-13T14:52:52.941Z,3.60
2018-06-13T14:55:23.318Z,3.80
2018-06-13T14:57:52.633Z,3.20
2018-06-13T15:00:21.631Z,3.47
2018-06-13T15:02:50.568Z,2.43
2018-06-13T15:05:19.767Z,3.07
2018-06-13T15:07:48.739Z,3.60
2018-06-13T15:10:17.861Z,2.70
2018-06-13T15:12:46.901Z,2.77
2018-06-13T15:15:16.304Z,2.90
2018-06-13T15:17:45.377Z,2.80
2018-06-13T15:20:14.743Z,3.40
2018-06-13T15:22:43.697Z,2.80
2018-06-13T15:25:13.150Z,2.20
2018-06-13T15:27:44.184Z,2.50
2018-06-13T15:30:13.051Z,2.37
2018-06-13T15:32:41.633Z,2.20
2018-06-13T15:35:10.647Z,2.53
2018-06-13T15:37:40.037Z,3.00
2018-06-13T15:40:09.196Z,2.83
2018-06-13T15:42:37.843Z,2.47
2018-06-13T15:45:06.486Z,2.20
2018-06-13T15:47:35.219Z,2.50
2018-06-13T15:50:03.840Z,2.90
2018-06-13T15:52:32.626Z,3.40
2018-06-13T15:55:01.326Z,2.47
2018-06-13T15:57:30.093Z,1.93
2018-06-13T15:59:59.043Z,2.00
2018-06-13T16:02:27.957Z,2.10
2018-06-13T16:04:56.687Z,2.10
2018-06-13T16:07:26.041Z,3.30
2018-06-13T16:09:54.701Z,3.57
2018-06-13T16:12:23.445Z,3.00
2018-06-13T16:14:52.304Z,2.30
2018-06-13T16:17:20.796Z,5.70
2018-06-13T16:19:49.582Z,1.90
2018-06-13T16:22:18.772Z,2.10
2018-06-13T16:24:47.355Z,2.60
2018-06-13T16:27:16.032Z,2.20
2018-06-13T16:29:44.796Z,2.37
2018-06-13T16:32:13.572Z,2.40
2018-06-13T16:34:42.190Z,2.17
2018-06-13T16:37:10.865Z,1.77
2018-06-13T16:39:39.403Z,3.10
2018-06-13T16:42:08.645Z,2.20
2018-06-13T16:44:37.223Z,3.50
2018-06-13T16:47:06.891Z,2.63
2018-06-13T16:49:35.786Z,2.00
2018-06-13T16:52:15.511Z,2.13
2018-06-13T16:54:55.012Z,2.00
2018-06-13T16:57:23.549Z,2.00
2018-06-13T16:59:52.336Z,2.30
2018-06-13T17:02:20.934Z,5.83
2018-06-13T17:04:49.523Z,2.77
2018-06-13T17:07:18.329Z,3.60
2018-06-13T17:09:46.925Z,5.07
2018-06-13T17:12:15.780Z,3.80
2018-06-13T17:14:44.430Z,2.17
2018-06-13T17:17:14.972Z,3.03
2018-06-13T17:19:43.624Z,3.20
2018-06-13T17:22:12.323Z,2.07
2018-06-13T17:24:40.939Z,2.20
2018-06-13T17:27:09.478Z,2.23
2018-06-13T17:29:38.046Z,2.00
2018-06-13T17:32:06.600Z,1.93
2018-06-13T17:34:35.279Z,2.27
2018-06-13T17:37:03.920Z,2.60
2018-06-13T17:39:32.866Z,2.03
2018-06-13T17:42:01.804Z,2.30
2018-06-13T17:44:30.633Z,2.60
2018-06-13T17:46:59.798Z,2.53
2018-06-13T17:49:28.547Z,1.90
2018-06-13T17:51:57.232Z,2.17
2018-06-13T17:54:25.868Z,3.10
2018-06-13T17:56:54.758Z,7.23
2018-06-13T17:59:23.400Z,2.50
2018-06-13T18:01:51.989Z,2.50
2018-06-13T18:04:20.577Z,7.23
2018-06-13T18:06:49.162Z,2.73
2018-06-13T18:09:17.684Z,2.60
2018-06-13T18:11:46.665Z,2.17
2018-06-13T18:14:15.241Z,2.67
2018-06-13T18:16:43.880Z,2.63
2018-06-13T18:19:13.016Z,2.80
2018-06-13T18:21:41.653Z,2.27
2018-06-13T18:24:10.841Z,1.90
2018-06-13T18:26:39.685Z,2.50
2018-06-13T18:29:08.274Z,2.07
2018-06-13T18:31:36.842Z,2.40
2018-06-13T18:34:05.455Z,2.00
2018-06-13T18:36:34.107Z,2.70
2018-06-13T18:39:02.694Z,1.83
2018-06-13T18:41:31.883Z,2.07
2018-06-13T18:44:00.398Z,2.63
2018-06-13T18:46:28.921Z,2.60
2018-06-13T18:48:57.548Z,2.33
2018-06-13T18:51:26.324Z,2.03
2018-06-13T18:53:54.867Z,2.50
2018-06-13T18:56:23.355Z,2.60
2018-06-13T18:58:51.892Z,2.50
2018-06-13T19:01:20.559Z,2.80
2018-06-13T19:03:49.264Z,2.47
2018-06-13T19:06:17.754Z,2.50
2018-06-13T19:08:46.509Z,2.70
2018-06-13T19:11:15.351Z,2.53
2018-06-13T19:13:44.114Z,2.30
2018-06-13T19:16:12.746Z,2.50
2018-06-13T19:18:41.383Z,2.80
2018-06-13T19:21:10.046Z,3.77
2018-06-13T19:23:39.114Z,3.10
2018-06-13T19:26:07.906Z,3.20
2018-06-13T19:28:36.573Z,2.30
2018-06-13T19:31:05.335Z,2.00
2018-06-13T19:33:33.924Z,2.57
2018-06-13T19:36:02.521Z,2.70
2018-06-13T19:38:31.281Z,2.43
2018-06-13T19:40:59.964Z,2.73
2018-06-13T19:43:33.881Z,2.53
2018-06-13T19:46:02.554Z,3.00
2018-06-13T19:48:36.240Z,3.07
2018-06-13T19:51:04.851Z,4.20
2018-06-13T19:53:38.592Z,3.10
2018-06-13T19:56:08.509Z,3.00
2018-06-13T19:58:37.981Z,3.00
2018-06-13T20:01:06.875Z,2.80
2018-06-13T20:03:40.601Z,3.10
2018-06-13T20:06:09.727Z,3.20
2018-06-13T20:08:38.433Z,2.93
2018-06-13T20:11:07.211Z,3.70
2018-06-13T20:13:40.872Z,3.20
2018-06-13T20:16:14.845Z,3.60
2018-06-13T20:18:48.693Z,3.00
2018-06-13T20:21:17.480Z,4.03
2018-06-13T20:23:46.480Z,3.20
2018-06-13T20:26:20.439Z,3.23
2018-06-13T20:28:54.413Z,3.33
2018-06-13T20:31:29.324Z,3.00
2018-06-13T20:33:58.100Z,3.00
2018-06-13T20:36:26.933Z,3.73
2018-06-13T20:38:55.966Z,2.93
2018-06-13T20:41:26.026Z,3.37
2018-06-13T20:43:54.848Z,3.70
2018-06-13T20:46:23.652Z,3.50
2018-06-13T20:48:52.420Z,3.00
2018-06-13T20:51:21.474Z,3.47
2018-06-13T20:53:50.296Z,3.60
2018-06-13T20:56:19.037Z,3.10
2018-06-13T20:58:47.807Z,3.80
2018-06-13T21:01:16.582Z,3.40
2018-06-13T21:03:45.457Z,3.50
2018-06-13T21:06:14.280Z,4.03
2018-06-13T21:08:43.012Z,3.93
2018-06-13T21:11:11.885Z,4.10
2018-06-13T21:13:41.928Z,3.47
2018-06-13T21:16:10.783Z,3.77
2018-06-13T21:18:40.011Z,3.60
2018-06-13T21:21:08.917Z,3.57
2018-06-13T21:23:37.642Z,3.33
2018-06-13T21:26:06.429Z,3.90
2018-06-13T21:28:35.268Z,3.83
2018-06-13T21:31:03.974Z,3.60
2018-06-13T21:33:32.573Z,3.47
2018-06-13T21:36:01.308Z,3.50
2018-06-13T21:38:29.980Z,3.80
2018-06-13T21:40:58.735Z,4.00
2018-06-13T21:43:27.392Z,4.60
2018-06-13T21:45:56.135Z,4.10
2018-06-13T21:48:24.895Z,4.43
2018-06-13T21:50:53.503Z,3.77
2018-06-13T21:53:22.156Z,3.97
2018-06-13T21:55:50.870Z,3.53
2018-06-13T21:58:19.503Z,4.70
2018-06-13T22:00:48.147Z,4.33
2018-06-13T22:03:17.053Z,4.37
2018-06-13T22:05:45.917Z,4.47
2018-06-13T22:08:14.777Z,4.37
2018-06-13T22:10:43.470Z,4.57
2018-06-13T22:13:12.432Z,5.07
2018-06-13T22:15:41.345Z,4.47
2018-06-13T22:18:09.979Z,4.77
2018-06-13T22:20:38.565Z,3.77
2018-06-13T22:23:07.105Z,4.53
2018-06-13T22:25:35.725Z,4.87
2018-06-13T22:28:04.302Z,4.57
2018-06-13T22:30:32.895Z,4.57
2018-06-13T22:33:01.477Z,5.23
2018-06-13T22:35:30.154Z,4.40
2018-06-13T22:37:58.798Z,4.27
2018-06-13T22:40:27.355Z,3.80
2018-06-13T22:42:56.016Z,3.97
2018-06-13T22:45:24.594Z,3.80
2018-06-13T22:47:53.238Z,4.50
2018-06-13T22:50:21.854Z,4.13
2018-06-13T22:52:50.438Z,4.40
2018-06-13T22:55:19.001Z,4.47
2018-06-13T22:57:47.846Z,4.10
2018-06-13T23:00:37.486Z,4.43
2018-06-13T23:03:06.071Z,4.40
2018-06-13T23:05:34.627Z,4.60
2018-06-13T23:08:03.232Z,4.67
2018-06-13T23:10:31.744Z,4.77
2018-06-13T23:13:00.404Z,5.67
2018-06-13T23:15:29.031Z,4.40
2018-06-13T23:17:57.702Z,5.43
2018-06-13T23:20:26.585Z,4.77
2018-06-13T23:22:55.282Z,4.90
2018-06-13T23:25:23.835Z,4.80
2018-06-13T23:27:52.418Z,4.80
2018-06-13T23:30:21.014Z,5.03
2018-06-13T23:32:49.690Z,5.33
2018-06-13T23:35:18.282Z,4.57
2018-06-13T23:37:47.121Z,4.43
2018-06-13T23:40:15.760Z,4.57
2018-06-13T23:42:44.476Z,4.03
2018-06-13T23:45:13.256Z,4.87
2018-06-13T23:47:41.931Z,5.13
2018-06-13T23:50:10.616Z,4.90
2018-06-13T23:52:39.565Z,5.30
2018-06-13T23:55:08.289Z,5.53
2018-06-13T23:57:36.969Z,5.50
